sensor_id;sensor_type;location;lat;lon;timestamp;temperature;humidity
41628;DHT22;27321;50.816;6.054;2022-11-03T00:02:07;13.00;68.00
41628;DHT22;27321;50.816;6.054;2022-11-03T00:05:08;13.10;67.80
41628;DHT22;27321;50.816;6.054;2022-11-03T00:08:27;13.00;68.00
41628;DHT22;27321;50.816;6.054;2022-11-03T00:11:32;13.00;68.10
41628;DHT22;27321;50.816;6.054;2022-11-03T00:14:33;13.00;68.00
41628;DHT22;27321;50.816;6.054;2022-11-03T00:17:34;13.00;68.10
41628;DHT22;27321;50.816;6.054;2022-11-03T00:20:35;13.00;68.10
41628;DHT22;27321;50.816;6.054;2022-11-03T00:23:39;13.00;68.00
41628;DHT22;27321;50.816;6.054;2022-11-03T00:26:41;13.00;68.10
41628;DHT22;27321;50.816;6.054;2022-11-03T00:29:42;13.00;67.90
41628;DHT22;27321;50.816;6.054;2022-11-03T00:32:43;13.00;67.60
41628;DHT22;27321;50.816;6.054;2022-11-03T00:35:44;13.00;67.80
41628;DHT22;27321;50.816;6.054;2022-11-03T00:38:46;13.00;67.80
41628;DHT22;27321;50.816;6.054;2022-11-03T00:41:47;13.00;67.70
41628;DHT22;27321;50.816;6.054;2022-11-03T00:44:48;13.00;67.40
41628;DHT22;27321;50.816;6.054;2022-11-03T00:47:49;13.00;67.40
41628;DHT22;27321;50.816;6.054;2022-11-03T00:54:17;13.10;67.40
41628;DHT22;27321;50.816;6.054;2022-11-03T00:57:18;13.00;67.40
41628;DHT22;27321;50.816;6.054;2022-11-03T01:00:19;13.00;67.30
41628;DHT22;27321;50.816;6.054;2022-11-03T01:03:20;13.00;67.30
41628;DHT22;27321;50.816;6.054;2022-11-03T01:06:21;13.00;67.50
41628;DHT22;27321;50.816;6.054;2022-11-03T01:09:41;13.00;67.50
41628;DHT22;27321;50.816;6.054;2022-11-03T01:12:43;13.00;67.70
41628;DHT22;27321;50.816;6.054;2022-11-03T01:15:44;13.00;67.50
41628;DHT22;27321;50.816;6.054;2022-11-03T01:18:45;13.00;67.60
41628;DHT22;27321;50.816;6.054;2022-11-03T01:21:46;13.10;67.40
41628;DHT22;27321;50.816;6.054;2022-11-03T01:24:47;13.10;67.20
41628;DHT22;27321;50.816;6.054;2022-11-03T01:27:48;13.10;67.20
41628;DHT22;27321;50.816;6.054;2022-11-03T01:30:48;13.10;67.10
41628;DHT22;27321;50.816;6.054;2022-11-03T01:33:51;13.10;67.00
41628;DHT22;27321;50.816;6.054;2022-11-03T01:36:54;13.10;67.00
41628;DHT22;27321;50.816;6.054;2022-11-03T01:39:56;13.10;66.60
41628;DHT22;27321;50.816;6.054;2022-11-03T01:43:14;13.10;66.70
41628;DHT22;27321;50.816;6.054;2022-11-03T01:50:18;13.10;66.50
41628;DHT22;27321;50.816;6.054;2022-11-03T01:53:21;13.10;66.40
41628;DHT22;27321;50.816;6.054;2022-11-03T01:56:23;13.10;66.70
41628;DHT22;27321;50.816;6.054;2022-11-03T01:59:24;13.10;66.60
41628;DHT22;27321;50.816;6.054;2022-11-03T02:02:26;13.10;66.70
41628;DHT22;27321;50.816;6.054;2022-11-03T02:05:28;13.10;66.70
41628;DHT22;27321;50.816;6.054;2022-11-03T02:08:34;13.20;66.60
41628;DHT22;27321;50.816;6.054;2022-11-03T02:11:38;13.20;66.50
41628;DHT22;27321;50.816;6.054;2022-11-03T02:15:02;13.20;66.60
41628;DHT22;27321;50.816;6.054;2022-11-03T02:18:06;13.20;66.70
41628;DHT22;27321;50.816;6.054;2022-11-03T02:21:20;13.20;66.80
41628;DHT22;27321;50.816;6.054;2022-11-03T02:28:16;13.20;67.00
41628;DHT22;27321;50.816;6.054;2022-11-03T02:34:41;13.20;67.60
41628;DHT22;27321;50.816;6.054;2022-11-03T02:37:56;13.30;67.70
41628;DHT22;27321;50.816;6.054;2022-11-03T02:41:02;13.30;68.00
41628;DHT22;27321;50.816;6.054;2022-11-03T02:44:12;13.20;68.10
41628;DHT22;27321;50.816;6.054;2022-11-03T02:47:17;13.30;68.40
41628;DHT22;27321;50.816;6.054;2022-11-03T02:50:18;13.30;68.50
41628;DHT22;27321;50.816;6.054;2022-11-03T02:53:21;13.30;68.70
41628;DHT22;27321;50.816;6.054;2022-11-03T02:56:23;13.30;68.80
41628;DHT22;27321;50.816;6.054;2022-11-03T02:59:44;13.30;69.10
41628;DHT22;27321;50.816;6.054;2022-11-03T03:02:58;13.30;69.20
41628;DHT22;27321;50.816;6.054;2022-11-03T03:06:08;13.30;69.40
41628;DHT22;27321;50.816;6.054;2022-11-03T03:09:18;13.30;69.70
41628;DHT22;27321;50.816;6.054;2022-11-03T03:12:22;13.30;69.70
41628;DHT22;27321;50.816;6.054;2022-11-03T03:15:46;13.30;69.80
41628;DHT22;27321;50.816;6.054;2022-11-03T03:22:25;13.30;69.90
41628;DHT22;27321;50.816;6.054;2022-11-03T03:26:04;13.30;70.10
41628;DHT22;27321;50.816;6.054;2022-11-03T03:29:21;13.30;70.50
41628;DHT22;27321;50.816;6.054;2022-11-03T03:32:27;13.20;70.70
41628;DHT22;27321;50.816;6.054;2022-11-03T03:35:32;13.20;70.90
41628;DHT22;27321;50.816;6.054;2022-11-03T03:38:38;13.20;71.10
41628;DHT22;27321;50.816;6.054;2022-11-03T03:41:45;13.20;71.20
41628;DHT22;27321;50.816;6.054;2022-11-03T03:44:48;13.20;71.30
41628;DHT22;27321;50.816;6.054;2022-11-03T03:47:50;13.20;71.40
41628;DHT22;27321;50.816;6.054;2022-11-03T03:50:51;13.20;71.50
41628;DHT22;27321;50.816;6.054;2022-11-03T03:53:53;13.20;71.70
41628;DHT22;27321;50.816;6.054;2022-11-03T03:56:57;13.10;71.70
41628;DHT22;27321;50.816;6.054;2022-11-03T04:00:04;13.20;71.80
41628;DHT22;27321;50.816;6.054;2022-11-03T04:03:24;13.20;71.90
41628;DHT22;27321;50.816;6.054;2022-11-03T04:06:25;13.20;71.80
41628;DHT22;27321;50.816;6.054;2022-11-03T04:09:29;13.20;72.00
41628;DHT22;27321;50.816;6.054;2022-11-03T04:12:30;13.20;71.90
41628;DHT22;27321;50.816;6.054;2022-11-03T04:15:50;13.20;71.90
41628;DHT22;27321;50.816;6.054;2022-11-03T04:18:54;13.20;71.90
41628;DHT22;27321;50.816;6.054;2022-11-03T04:22:13;13.20;72.20
41628;DHT22;27321;50.816;6.054;2022-11-03T04:25:17;13.20;72.20
41628;DHT22;27321;50.816;6.054;2022-11-03T04:28:18;13.20;72.10
41628;DHT22;27321;50.816;6.054;2022-11-03T04:31:20;13.20;72.00
41628;DHT22;27321;50.816;6.054;2022-11-03T04:34:21;13.20;72.10
41628;DHT22;27321;50.816;6.054;2022-11-03T04:37:26;13.30;72.10
41628;DHT22;27321;50.816;6.054;2022-11-03T04:40:30;13.30;72.10
41628;DHT22;27321;50.816;6.054;2022-11-03T04:43:33;13.30;72.10
41628;DHT22;27321;50.816;6.054;2022-11-03T04:46:35;13.30;72.10
41628;DHT22;27321;50.816;6.054;2022-11-03T04:49:37;13.30;72.00
41628;DHT22;27321;50.816;6.054;2022-11-03T04:52:38;13.30;71.90
41628;DHT22;27321;50.816;6.054;2022-11-03T04:55:43;13.30;72.10
41628;DHT22;27321;50.816;6.054;2022-11-03T04:58:47;13.30;71.90
41628;DHT22;27321;50.816;6.054;2022-11-03T05:01:48;13.30;72.00
41628;DHT22;27321;50.816;6.054;2022-11-03T05:04:49;13.30;72.00
41628;DHT22;27321;50.816;6.054;2022-11-03T05:07:56;13.30;72.00
41628;DHT22;27321;50.816;6.054;2022-11-03T05:10:58;13.30;71.90
41628;DHT22;27321;50.816;6.054;2022-11-03T05:14:02;13.30;71.80
41628;DHT22;27321;50.816;6.054;2022-11-03T05:17:31;13.40;71.60
41628;DHT22;27321;50.816;6.054;2022-11-03T05:20:37;13.30;71.70
41628;DHT22;27321;50.816;6.054;2022-11-03T05:23:47;13.30;71.40
41628;DHT22;27321;50.816;6.054;2022-11-03T05:26:55;13.30;71.60
41628;DHT22;27321;50.816;6.054;2022-11-03T05:29:59;13.30;71.60
41628;DHT22;27321;50.816;6.054;2022-11-03T05:33:01;13.40;71.50
41628;DHT22;27321;50.816;6.054;2022-11-03T05:36:09;13.40;71.40
41628;DHT22;27321;50.816;6.054;2022-11-03T05:39:30;13.40;71.30
41628;DHT22;27321;50.816;6.054;2022-11-03T05:42:37;13.30;71.30
41628;DHT22;27321;50.816;6.054;2022-11-03T05:45:40;13.40;71.00
41628;DHT22;27321;50.816;6.054;2022-11-03T05:48:44;13.40;71.20
41628;DHT22;27321;50.816;6.054;2022-11-03T05:51:45;13.40;71.00
41628;DHT22;27321;50.816;6.054;2022-11-03T05:54:48;13.40;70.80
41628;DHT22;27321;50.816;6.054;2022-11-03T05:57:50;13.50;70.60
41628;DHT22;27321;50.816;6.054;2022-11-03T06:00:52;13.50;70.50
41628;DHT22;27321;50.816;6.054;2022-11-03T06:03:54;13.40;70.60
41628;DHT22;27321;50.816;6.054;2022-11-03T06:07:02;13.40;70.50
41628;DHT22;27321;50.816;6.054;2022-11-03T06:10:24;13.50;70.50
41628;DHT22;27321;50.816;6.054;2022-11-03T06:16:41;13.50;70.10
41628;DHT22;27321;50.816;6.054;2022-11-03T06:19:48;13.40;70.00
41628;DHT22;27321;50.816;6.054;2022-11-03T06:22:53;13.40;69.90
41628;DHT22;27321;50.816;6.054;2022-11-03T06:26:00;13.40;70.20
41628;DHT22;27321;50.816;6.054;2022-11-03T06:33:18;13.40;70.10
41628;DHT22;27321;50.816;6.054;2022-11-03T06:36:37;13.40;70.30
41628;DHT22;27321;50.816;6.054;2022-11-03T06:39:59;13.40;70.30
41628;DHT22;27321;50.816;6.054;2022-11-03T06:55:59;13.40;70.00
41628;DHT22;27321;50.816;6.054;2022-11-03T06:59:00;13.50;69.80
41628;DHT22;27321;50.816;6.054;2022-11-03T07:02:01;13.50;69.90
41628;DHT22;27321;50.816;6.054;2022-11-03T07:05:14;13.40;69.90
41628;DHT22;27321;50.816;6.054;2022-11-03T07:08:27;13.40;69.90
41628;DHT22;27321;50.816;6.054;2022-11-03T07:11:33;13.50;70.00
41628;DHT22;27321;50.816;6.054;2022-11-03T07:14:35;13.50;69.60
41628;DHT22;27321;50.816;6.054;2022-11-03T07:17:36;13.50;69.70
41628;DHT22;27321;50.816;6.054;2022-11-03T07:20:38;13.60;69.70
41628;DHT22;27321;50.816;6.054;2022-11-03T07:23:39;13.60;69.40
41628;DHT22;27321;50.816;6.054;2022-11-03T07:26:40;13.60;69.00
41628;DHT22;27321;50.816;6.054;2022-11-03T07:29:42;13.60;68.90
41628;DHT22;27321;50.816;6.054;2022-11-03T07:32:45;13.60;68.90
41628;DHT22;27321;50.816;6.054;2022-11-03T07:35:48;13.70;68.40
41628;DHT22;27321;50.816;6.054;2022-11-03T07:38:52;13.70;67.90
41628;DHT22;27321;50.816;6.054;2022-11-03T07:41:53;13.70;68.00
41628;DHT22;27321;50.816;6.054;2022-11-03T07:44:55;13.80;67.70
41628;DHT22;27321;50.816;6.054;2022-11-03T07:47:56;13.70;67.20
41628;DHT22;27321;50.816;6.054;2022-11-03T07:51:00;13.80;67.20
41628;DHT22;27321;50.816;6.054;2022-11-03T07:54:32;13.80;66.90
41628;DHT22;27321;50.816;6.054;2022-11-03T07:57:33;13.80;66.90
41628;DHT22;27321;50.816;6.054;2022-11-03T08:00:34;13.80;67.00
41628;DHT22;27321;50.816;6.054;2022-11-03T08:03:46;13.80;66.70
41628;DHT22;27321;50.816;6.054;2022-11-03T08:06:47;13.80;66.30
41628;DHT22;27321;50.816;6.054;2022-11-03T08:09:49;13.90;66.60
41628;DHT22;27321;50.816;6.054;2022-11-03T08:12:51;13.90;66.20
41628;DHT22;27321;50.816;6.054;2022-11-03T08:15:52;13.90;66.30
41628;DHT22;27321;50.816;6.054;2022-11-03T08:18:53;13.90;66.00
41628;DHT22;27321;50.816;6.054;2022-11-03T08:21:54;14.00;65.80
41628;DHT22;27321;50.816;6.054;2022-11-03T08:24:55;14.00;65.90
41628;DHT22;27321;50.816;6.054;2022-11-03T08:27:56;14.10;65.70
41628;DHT22;27321;50.816;6.054;2022-11-03T08:30:57;14.10;65.60
41628;DHT22;27321;50.816;6.054;2022-11-03T08:34:04;14.10;65.10
41628;DHT22;27321;50.816;6.054;2022-11-03T08:37:05;14.10;65.60
41628;DHT22;27321;50.816;6.054;2022-11-03T08:40:07;14.10;65.40
41628;DHT22;27321;50.816;6.054;2022-11-03T08:43:08;14.20;65.60
41628;DHT22;27321;50.816;6.054;2022-11-03T08:46:09;14.20;65.10
41628;DHT22;27321;50.816;6.054;2022-11-03T08:49:10;14.30;65.30
41628;DHT22;27321;50.816;6.054;2022-11-03T08:52:11;14.30;65.30
41628;DHT22;27321;50.816;6.054;2022-11-03T08:55:12;14.40;65.30
41628;DHT22;27321;50.816;6.054;2022-11-03T08:58:13;14.40;65.60
41628;DHT22;27321;50.816;6.054;2022-11-03T09:01:14;14.50;65.20
41628;DHT22;27321;50.816;6.054;2022-11-03T09:04:15;14.50;65.60
41628;DHT22;27321;50.816;6.054;2022-11-03T09:07:16;14.50;65.40
41628;DHT22;27321;50.816;6.054;2022-11-03T09:10:17;14.60;64.90
41628;DHT22;27321;50.816;6.054;2022-11-03T09:13:18;14.60;65.00
41628;DHT22;27321;50.816;6.054;2022-11-03T09:16:19;14.60;64.80
41628;DHT22;27321;50.816;6.054;2022-11-03T09:19:20;14.60;64.80
41628;DHT22;27321;50.816;6.054;2022-11-03T09:22:21;14.60;64.60
41628;DHT22;27321;50.816;6.054;2022-11-03T09:25:22;14.60;64.40
41628;DHT22;27321;50.816;6.054;2022-11-03T09:28:24;14.60;64.20
41628;DHT22;27321;50.816;6.054;2022-11-03T09:31:25;14.70;64.20
41628;DHT22;27321;50.816;6.054;2022-11-03T09:34:28;14.80;64.60
41628;DHT22;27321;50.816;6.054;2022-11-03T09:37:30;14.80;64.50
41628;DHT22;27321;50.816;6.054;2022-11-03T09:40:31;14.80;64.10
41628;DHT22;27321;50.816;6.054;2022-11-03T09:43:32;14.80;64.10
41628;DHT22;27321;50.816;6.054;2022-11-03T09:46:33;14.80;64.00
41628;DHT22;27321;50.816;6.054;2022-11-03T09:49:35;14.90;63.90
41628;DHT22;27321;50.816;6.054;2022-11-03T09:52:36;14.90;64.00
41628;DHT22;27321;50.816;6.054;2022-11-03T09:55:38;14.90;63.80
41628;DHT22;27321;50.816;6.054;2022-11-03T09:58:40;14.90;63.40
41628;DHT22;27321;50.816;6.054;2022-11-03T10:01:42;14.90;63.90
41628;DHT22;27321;50.816;6.054;2022-11-03T10:04:45;14.90;63.90
41628;DHT22;27321;50.816;6.054;2022-11-03T10:07:46;14.90;63.80
41628;DHT22;27321;50.816;6.054;2022-11-03T10:10:48;14.90;63.70
41628;DHT22;27321;50.816;6.054;2022-11-03T10:13:52;14.90;63.70
41628;DHT22;27321;50.816;6.054;2022-11-03T10:16:56;14.90;63.20
41628;DHT22;27321;50.816;6.054;2022-11-03T10:20:01;14.90;63.00
41628;DHT22;27321;50.816;6.054;2022-11-03T10:23:02;14.90;62.90
41628;DHT22;27321;50.816;6.054;2022-11-03T10:26:17;14.90;62.70
41628;DHT22;27321;50.816;6.054;2022-11-03T10:29:27;15.00;62.10
41628;DHT22;27321;50.816;6.054;2022-11-03T10:32:30;15.00;62.80
41628;DHT22;27321;50.816;6.054;2022-11-03T10:35:34;15.00;62.60
41628;DHT22;27321;50.816;6.054;2022-11-03T10:38:35;15.00;62.70
41628;DHT22;27321;50.816;6.054;2022-11-03T10:41:36;15.00;62.90
41628;DHT22;27321;50.816;6.054;2022-11-03T10:44:37;15.10;62.60
41628;DHT22;27321;50.816;6.054;2022-11-03T10:47:38;15.10;62.10
41628;DHT22;27321;50.816;6.054;2022-11-03T10:50:40;15.10;62.00
41628;DHT22;27321;50.816;6.054;2022-11-03T10:53:41;15.20;62.30
41628;DHT22;27321;50.816;6.054;2022-11-03T10:56:43;15.20;62.30
41628;DHT22;27321;50.816;6.054;2022-11-03T10:59:46;15.20;62.30
41628;DHT22;27321;50.816;6.054;2022-11-03T11:02:49;15.20;61.90
41628;DHT22;27321;50.816;6.054;2022-11-03T11:05:51;15.20;62.30
41628;DHT22;27321;50.816;6.054;2022-11-03T11:08:58;15.30;62.20
41628;DHT22;27321;50.816;6.054;2022-11-03T11:15:42;15.20;61.70
41628;DHT22;27321;50.816;6.054;2022-11-03T11:21:56;15.20;61.20
41628;DHT22;27321;50.816;6.054;2022-11-03T11:24:59;15.20;61.30
41628;DHT22;27321;50.816;6.054;2022-11-03T11:28:10;15.30;61.50
41628;DHT22;27321;50.816;6.054;2022-11-03T11:31:29;15.30;61.40
41628;DHT22;27321;50.816;6.054;2022-11-03T11:37:37;15.40;61.10
41628;DHT22;27321;50.816;6.054;2022-11-03T11:40:50;15.40;60.80
41628;DHT22;27321;50.816;6.054;2022-11-03T11:43:52;15.40;60.40
41628;DHT22;27321;50.816;6.054;2022-11-03T11:46:52;15.50;60.30
41628;DHT22;27321;50.816;6.054;2022-11-03T11:53:11;15.60;59.90
41628;DHT22;27321;50.816;6.054;2022-11-03T11:56:14;15.60;59.60
41628;DHT22;27321;50.816;6.054;2022-11-03T11:59:21;15.60;59.80
41628;DHT22;27321;50.816;6.054;2022-11-03T12:02:23;15.70;59.50
41628;DHT22;27321;50.816;6.054;2022-11-03T12:05:33;15.70;59.50
41628;DHT22;27321;50.816;6.054;2022-11-03T12:08:35;15.70;59.50
41628;DHT22;27321;50.816;6.054;2022-11-03T12:14:43;15.60;60.00
41628;DHT22;27321;50.816;6.054;2022-11-03T12:17:44;15.60;59.90
41628;DHT22;27321;50.816;6.054;2022-11-03T12:20:45;15.60;59.90
41628;DHT22;27321;50.816;6.054;2022-11-03T12:23:47;15.60;60.00
41628;DHT22;27321;50.816;6.054;2022-11-03T12:26:48;15.60;60.30
41628;DHT22;27321;50.816;6.054;2022-11-03T12:29:50;15.50;60.30
41628;DHT22;27321;50.816;6.054;2022-11-03T12:33:01;15.50;60.80
41628;DHT22;27321;50.816;6.054;2022-11-03T12:36:02;15.60;60.50
41628;DHT22;27321;50.816;6.054;2022-11-03T12:39:04;15.60;60.80
41628;DHT22;27321;50.816;6.054;2022-11-03T12:42:05;15.60;60.40
41628;DHT22;27321;50.816;6.054;2022-11-03T12:45:07;15.60;60.30
41628;DHT22;27321;50.816;6.054;2022-11-03T12:48:08;15.60;61.00
41628;DHT22;27321;50.816;6.054;2022-11-03T12:51:14;15.60;61.00
41628;DHT22;27321;50.816;6.054;2022-11-03T12:54:20;15.60;61.00
41628;DHT22;27321;50.816;6.054;2022-11-03T12:57:22;15.70;61.00
41628;DHT22;27321;50.816;6.054;2022-11-03T13:00:23;15.70;60.70
41628;DHT22;27321;50.816;6.054;2022-11-03T13:03:24;15.80;60.70
41628;DHT22;27321;50.816;6.054;2022-11-03T13:06:25;15.90;60.90
41628;DHT22;27321;50.816;6.054;2022-11-03T13:09:26;15.90;60.80
41628;DHT22;27321;50.816;6.054;2022-11-03T13:29:12;16.00;60.80
41628;DHT22;27321;50.816;6.054;2022-11-03T13:32:13;15.90;60.80
41628;DHT22;27321;50.816;6.054;2022-11-03T13:35:14;15.90;60.40
41628;DHT22;27321;50.816;6.054;2022-11-03T13:38:16;15.80;60.70
41628;DHT22;27321;50.816;6.054;2022-11-03T13:41:17;15.80;60.60
41628;DHT22;27321;50.816;6.054;2022-11-03T13:44:18;15.80;60.90
41628;DHT22;27321;50.816;6.054;2022-11-03T13:47:19;15.80;60.70
41628;DHT22;27321;50.816;6.054;2022-11-03T13:50:20;15.70;60.70
41628;DHT22;27321;50.816;6.054;2022-11-03T13:53:22;15.70;61.00
41628;DHT22;27321;50.816;6.054;2022-11-03T13:56:23;15.70;60.90
41628;DHT22;27321;50.816;6.054;2022-11-03T13:59:24;15.70;61.00
41628;DHT22;27321;50.816;6.054;2022-11-03T14:02:25;15.70;61.20
41628;DHT22;27321;50.816;6.054;2022-11-03T14:05:42;15.70;61.10
41628;DHT22;27321;50.816;6.054;2022-11-03T14:09:06;15.60;62.00
41628;DHT22;27321;50.816;6.054;2022-11-03T14:12:19;15.60;62.60
41628;DHT22;27321;50.816;6.054;2022-11-03T14:15:39;15.60;63.40
41628;DHT22;27321;50.816;6.054;2022-11-03T14:18:43;15.40;64.20
41628;DHT22;27321;50.816;6.054;2022-11-03T14:22:03;15.30;65.20
41628;DHT22;27321;50.816;6.054;2022-11-03T14:25:16;15.30;65.90
41628;DHT22;27321;50.816;6.054;2022-11-03T14:33:44;15.20;66.90
41628;DHT22;27321;50.816;6.054;2022-11-03T14:36:54;15.10;67.30
41628;DHT22;27321;50.816;6.054;2022-11-03T14:40:24;15.10;67.50
41628;DHT22;27321;50.816;6.054;2022-11-03T14:48:37;15.00;69.20
41628;DHT22;27321;50.816;6.054;2022-11-03T14:51:54;15.00;69.40
41628;DHT22;27321;50.816;6.054;2022-11-03T14:55:53;14.90;69.60
41628;DHT22;27321;50.816;6.054;2022-11-03T14:59:15;14.90;69.60
41628;DHT22;27321;50.816;6.054;2022-11-03T15:02:16;14.80;69.50
41628;DHT22;27321;50.816;6.054;2022-11-03T15:05:16;14.80;69.80
41628;DHT22;27321;50.816;6.054;2022-11-03T15:08:37;14.70;69.50
41628;DHT22;27321;50.816;6.054;2022-11-03T15:11:38;14.70;69.40
41628;DHT22;27321;50.816;6.054;2022-11-03T15:14:39;14.60;69.40
41628;DHT22;27321;50.816;6.054;2022-11-03T15:17:40;14.60;69.30
41628;DHT22;27321;50.816;6.054;2022-11-03T15:20:41;14.60;69.40
41628;DHT22;27321;50.816;6.054;2022-11-03T15:23:42;14.60;69.50
41628;DHT22;27321;50.816;6.054;2022-11-03T15:26:43;14.60;69.50
41628;DHT22;27321;50.816;6.054;2022-11-03T15:29:44;14.60;69.60
41628;DHT22;27321;50.816;6.054;2022-11-03T15:32:45;14.60;69.70
41628;DHT22;27321;50.816;6.054;2022-11-03T15:35:46;14.60;69.80
41628;DHT22;27321;50.816;6.054;2022-11-03T15:38:47;14.60;69.90
41628;DHT22;27321;50.816;6.054;2022-11-03T15:41:49;14.60;69.90
41628;DHT22;27321;50.816;6.054;2022-11-03T15:44:50;14.50;70.10
41628;DHT22;27321;50.816;6.054;2022-11-03T15:47:51;14.50;70.00
41628;DHT22;27321;50.816;6.054;2022-11-03T15:50:52;14.50;70.30
41628;DHT22;27321;50.816;6.054;2022-11-03T15:53:53;14.50;70.40
41628;DHT22;27321;50.816;6.054;2022-11-03T15:56:54;14.50;70.10
41628;DHT22;27321;50.816;6.054;2022-11-03T15:59:55;14.50;70.20
41628;DHT22;27321;50.816;6.054;2022-11-03T16:02:56;14.50;70.30
41628;DHT22;27321;50.816;6.054;2022-11-03T16:06:01;14.50;70.20
41628;DHT22;27321;50.816;6.054;2022-11-03T16:09:02;14.50;70.70
41628;DHT22;27321;50.816;6.054;2022-11-03T16:12:03;14.40;70.90
41628;DHT22;27321;50.816;6.054;2022-11-03T16:15:05;14.50;71.70
41628;DHT22;27321;50.816;6.054;2022-11-03T16:18:06;14.40;71.70
41628;DHT22;27321;50.816;6.054;2022-11-03T16:21:07;14.40;71.80
41628;DHT22;27321;50.816;6.054;2022-11-03T16:24:09;14.40;71.30
41628;DHT22;27321;50.816;6.054;2022-11-03T16:27:11;14.30;71.70
41628;DHT22;27321;50.816;6.054;2022-11-03T16:30:12;14.30;71.70
41628;DHT22;27321;50.816;6.054;2022-11-03T16:33:13;14.30;71.40
41628;DHT22;27321;50.816;6.054;2022-11-03T16:36:14;14.30;71.70
41628;DHT22;27321;50.816;6.054;2022-11-03T16:39:15;14.30;71.00
41628;DHT22;27321;50.816;6.054;2022-11-03T16:42:16;14.30;71.30
41628;DHT22;27321;50.816;6.054;2022-11-03T16:45:19;14.30;71.20
41628;DHT22;27321;50.816;6.054;2022-11-03T16:48:22;14.30;71.30
41628;DHT22;27321;50.816;6.054;2022-11-03T16:51:23;14.20;71.20
41628;DHT22;27321;50.816;6.054;2022-11-03T16:54:24;14.30;71.10
41628;DHT22;27321;50.816;6.054;2022-11-03T16:57:40;14.20;71.20
41628;DHT22;27321;50.816;6.054;2022-11-03T17:01:26;14.20;71.40
41628;DHT22;27321;50.816;6.054;2022-11-03T17:05:18;14.20;71.50
41628;DHT22;27321;50.816;6.054;2022-11-03T17:08:40;14.10;71.60
41628;DHT22;27321;50.816;6.054;2022-11-03T17:12:35;14.10;71.80
41628;DHT22;27321;50.816;6.054;2022-11-03T17:16:17;14.10;71.80
41628;DHT22;27321;50.816;6.054;2022-11-03T17:20:15;14.20;72.40
41628;DHT22;27321;50.816;6.054;2022-11-03T17:23:23;14.20;72.80
41628;DHT22;27321;50.816;6.054;2022-11-03T17:30:29;14.30;73.10
41628;DHT22;27321;50.816;6.054;2022-11-03T17:33:32;14.20;73.70
41628;DHT22;27321;50.816;6.054;2022-11-03T17:36:37;14.20;74.00
41628;DHT22;27321;50.816;6.054;2022-11-03T17:39:38;14.10;74.00
41628;DHT22;27321;50.816;6.054;2022-11-03T17:42:40;14.10;74.10
41628;DHT22;27321;50.816;6.054;2022-11-03T17:45:42;14.20;74.00
41628;DHT22;27321;50.816;6.054;2022-11-03T17:49:06;14.20;73.80
41628;DHT22;27321;50.816;6.054;2022-11-03T17:52:16;14.20;73.80
41628;DHT22;27321;50.816;6.054;2022-11-03T17:55:28;14.10;74.00
41628;DHT22;27321;50.816;6.054;2022-11-03T17:58:33;14.10;73.90
41628;DHT22;27321;50.816;6.054;2022-11-03T18:01:35;14.10;73.90
41628;DHT22;27321;50.816;6.054;2022-11-03T18:04:36;14.20;73.70
41628;DHT22;27321;50.816;6.054;2022-11-03T18:07:38;14.10;73.70
41628;DHT22;27321;50.816;6.054;2022-11-03T18:10:42;14.20;73.80
41628;DHT22;27321;50.816;6.054;2022-11-03T18:13:46;14.10;73.70
41628;DHT22;27321;50.816;6.054;2022-11-03T18:16:50;14.20;73.90
41628;DHT22;27321;50.816;6.054;2022-11-03T18:19:52;14.10;74.00
41628;DHT22;27321;50.816;6.054;2022-11-03T18:22:56;14.10;74.00
41628;DHT22;27321;50.816;6.054;2022-11-03T18:26:14;14.10;74.00
41628;DHT22;27321;50.816;6.054;2022-11-03T18:29:16;14.10;74.40
41628;DHT22;27321;50.816;6.054;2022-11-03T18:32:18;14.10;74.30
41628;DHT22;27321;50.816;6.054;2022-11-03T18:35:25;14.10;74.50
41628;DHT22;27321;50.816;6.054;2022-11-03T18:38:28;14.00;74.70
41628;DHT22;27321;50.816;6.054;2022-11-03T18:41:29;14.00;75.30
41628;DHT22;27321;50.816;6.054;2022-11-03T18:44:40;14.00;75.20
41628;DHT22;27321;50.816;6.054;2022-11-03T18:47:42;14.00;75.50
41628;DHT22;27321;50.816;6.054;2022-11-03T18:50:52;13.90;75.70
41628;DHT22;27321;50.816;6.054;2022-11-03T18:53:55;13.90;75.70
41628;DHT22;27321;50.816;6.054;2022-11-03T18:56:56;13.90;75.80
41628;DHT22;27321;50.816;6.054;2022-11-03T18:59:57;13.90;75.80
41628;DHT22;27321;50.816;6.054;2022-11-03T19:02:58;13.80;75.50
41628;DHT22;27321;50.816;6.054;2022-11-03T19:05:59;13.80;76.00
41628;DHT22;27321;50.816;6.054;2022-11-03T19:09:00;13.80;76.00
41628;DHT22;27321;50.816;6.054;2022-11-03T19:12:01;13.70;75.80
41628;DHT22;27321;50.816;6.054;2022-11-03T19:15:03;13.60;75.80
41628;DHT22;27321;50.816;6.054;2022-11-03T19:18:04;13.60;75.60
41628;DHT22;27321;50.816;6.054;2022-11-03T19:21:17;13.60;75.70
41628;DHT22;27321;50.816;6.054;2022-11-03T19:24:21;13.60;75.60
41628;DHT22;27321;50.816;6.054;2022-11-03T19:27:26;13.60;75.50
41628;DHT22;27321;50.816;6.054;2022-11-03T19:30:29;13.60;75.40
41628;DHT22;27321;50.816;6.054;2022-11-03T19:33:31;13.60;75.60
41628;DHT22;27321;50.816;6.054;2022-11-03T19:36:32;13.60;75.10
41628;DHT22;27321;50.816;6.054;2022-11-03T19:39:38;13.60;75.40
41628;DHT22;27321;50.816;6.054;2022-11-03T19:42:40;13.60;75.20
41628;DHT22;27321;50.816;6.054;2022-11-03T19:45:41;13.60;75.20
41628;DHT22;27321;50.816;6.054;2022-11-03T19:48:42;13.70;75.20
41628;DHT22;27321;50.816;6.054;2022-11-03T19:51:43;13.70;75.00
41628;DHT22;27321;50.816;6.054;2022-11-03T19:54:47;13.70;75.10
41628;DHT22;27321;50.816;6.054;2022-11-03T19:57:49;13.70;75.00
41628;DHT22;27321;50.816;6.054;2022-11-03T20:00:51;13.70;74.90
41628;DHT22;27321;50.816;6.054;2022-11-03T20:03:52;13.70;74.60
41628;DHT22;27321;50.816;6.054;2022-11-03T20:06:53;13.60;74.80
41628;DHT22;27321;50.816;6.054;2022-11-03T20:09:55;13.60;74.80
41628;DHT22;27321;50.816;6.054;2022-11-03T20:12:57;13.60;74.90
41628;DHT22;27321;50.816;6.054;2022-11-03T20:15:58;13.60;74.60
41628;DHT22;27321;50.816;6.054;2022-11-03T20:18:59;13.60;75.00
41628;DHT22;27321;50.816;6.054;2022-11-03T20:22:00;13.50;75.10
41628;DHT22;27321;50.816;6.054;2022-11-03T20:25:02;13.50;75.20
41628;DHT22;27321;50.816;6.054;2022-11-03T20:28:18;13.60;74.90
41628;DHT22;27321;50.816;6.054;2022-11-03T20:31:21;13.50;75.20
41628;DHT22;27321;50.816;6.054;2022-11-03T20:34:23;13.50;75.40
41628;DHT22;27321;50.816;6.054;2022-11-03T20:37:24;13.50;75.10
41628;DHT22;27321;50.816;6.054;2022-11-03T20:40:29;13.50;75.30
41628;DHT22;27321;50.816;6.054;2022-11-03T20:43:34;13.50;75.40
41628;DHT22;27321;50.816;6.054;2022-11-03T20:46:38;13.50;75.40
41628;DHT22;27321;50.816;6.054;2022-11-03T20:49:39;13.50;75.20
41628;DHT22;27321;50.816;6.054;2022-11-03T20:52:40;13.50;75.30
41628;DHT22;27321;50.816;6.054;2022-11-03T20:55:42;13.40;75.70